createdAt,value
2019-05-01T00:02:29.486Z,97289.61
2019-05-01T00:05:14.084Z,97292.70
2019-05-01T00:07:44.083Z,97297.13
2019-05-01T00:10:14.781Z,97285.24
2019-05-01T00:12:44.562Z,97285.16
2019-05-01T00:15:14.662Z,97292.11
2019-05-01T00:17:44.674Z,97292.25
2019-05-01T00:20:14.837Z,97295.00
2019-05-01T00:22:44.325Z,97293.56
2019-05-01T00:25:13.976Z,97294.91
2019-05-01T00:27:43.777Z,97302.52
2019-05-01T00:30:29.093Z,97297.55
2019-05-01T00:32:47.772Z,97294.34
2019-05-01T00:35:17.188Z,97293.11
2019-05-01T00:37:47.058Z,97294.42
2019-05-01T00:40:16.892Z,97291.94
2019-05-01T00:42:46.302Z,97289.91
2019-05-01T00:45:16.132Z,97295.09
2019-05-01T00:47:45.901Z,97296.55
2019-05-01T00:50:15.486Z,97290.20
2019-05-01T00:52:45.115Z,97296.80
2019-05-01T00:55:32.707Z,97293.46
2019-05-01T00:58:18.782Z,97286.12
2019-05-01T01:01:10.307Z,97287.49
2019-05-01T01:03:40.678Z,97288.93
2019-05-01T01:06:10.750Z,97287.17
2019-05-01T01:08:40.284Z,97290.23
2019-05-01T01:11:09.965Z,97285.12
2019-05-01T01:13:39.828Z,97291.77
2019-05-01T01:16:09.310Z,97293.25
2019-05-01T01:18:38.788Z,97286.06
2019-05-01T01:21:08.547Z,97288.81
2019-05-01T01:23:38.645Z,97284.83
2019-05-01T01:26:08.133Z,97283.85
2019-05-01T01:28:37.662Z,97286.22
2019-05-01T01:31:07.157Z,97282.62
2019-05-01T01:33:37.080Z,97280.29
2019-05-01T01:36:06.892Z,97279.13
2019-05-01T01:38:36.365Z,97272.03
2019-05-01T01:41:06.049Z,97273.01
2019-05-01T01:44:10.537Z,97268.55
2019-05-01T01:46:40.508Z,97266.70
2019-05-01T01:49:10.557Z,97267.95
2019-05-01T01:51:40.147Z,97266.94
2019-05-01T01:54:09.569Z,97270.91
2019-05-01T01:56:39.365Z,97266.07
2019-05-01T01:59:09.421Z,97266.45
2019-05-01T02:01:47.561Z,97253.49
2019-05-01T02:04:46.125Z,97255.79
2019-05-01T02:07:15.780Z,97257.66
2019-05-01T02:09:45.267Z,97255.77
2019-05-01T02:12:15.215Z,97252.23
2019-05-01T02:14:44.607Z,97244.88
2019-05-01T02:17:14.007Z,97239.00
2019-05-01T02:19:43.732Z,97246.95
2019-05-01T02:22:13.588Z,97245.80
2019-05-01T02:24:43.228Z,97256.68
2019-05-01T02:27:18.686Z,97255.36
2019-05-01T02:29:52.544Z,97250.89
2019-05-01T02:32:24.426Z,97252.73
2019-05-01T02:34:55.552Z,97252.20
2019-05-01T02:37:26.997Z,97258.93
2019-05-01T02:39:59.112Z,97253.27
2019-05-01T02:42:31.603Z,97253.95
2019-05-01T02:45:03.517Z,97257.59
2019-05-01T02:47:36.491Z,97254.09
2019-05-01T02:50:09.308Z,97258.30
2019-05-01T02:52:40.748Z,97254.20
2019-05-01T02:55:26.303Z,97258.14
2019-05-01T02:57:56.644Z,97250.82
2019-05-01T03:00:27.719Z,97252.31
2019-05-01T03:02:58.231Z,97251.08
2019-05-01T03:05:27.826Z,97247.33
2019-05-01T03:07:57.772Z,97249.20
2019-05-01T03:10:27.596Z,97250.37
2019-05-01T03:12:57.833Z,97246.02
2019-05-01T03:15:30.343Z,97250.06
2019-05-01T03:18:19.390Z,97255.23
2019-05-01T03:21:10.296Z,97258.35
2019-05-01T03:23:44.266Z,97257.16
2019-05-01T03:26:14.260Z,97260.88
2019-05-01T03:28:44.131Z,97264.29
2019-05-01T03:31:14.057Z,97268.61
2019-05-01T03:33:49.497Z,97267.39
2019-05-01T03:36:20.293Z,97263.98
2019-05-01T03:38:50.418Z,97270.28
2019-05-01T03:41:20.689Z,97275.66
2019-05-01T03:43:51.113Z,97275.20
2019-05-01T03:46:21.344Z,97273.52
2019-05-01T03:48:51.428Z,97273.52
2019-05-01T03:51:21.158Z,97272.58
2019-05-01T03:53:51.079Z,97270.48
2019-05-01T03:56:21.309Z,97262.88
2019-05-01T03:58:51.090Z,97267.44
2019-05-01T04:01:30.265Z,97267.79
2019-05-01T04:04:03.501Z,97265.57
2019-05-01T04:06:33.908Z,97261.79
2019-05-01T04:09:04.473Z,97261.37
2019-05-01T04:11:34.502Z,97253.23
2019-05-01T04:14:04.584Z,97265.45
2019-05-01T04:16:35.130Z,97255.16
2019-05-01T04:19:05.720Z,97253.39
2019-05-01T04:21:43.049Z,97251.81
2019-05-01T04:24:12.813Z,97264.13
2019-05-01T04:26:42.960Z,97264.95
2019-05-01T04:29:31.673Z,97267.98
2019-05-01T04:32:23.024Z,97263.22
2019-05-01T04:35:01.854Z,97263.70
2019-05-01T04:37:31.839Z,97266.63
2019-05-01T04:40:01.731Z,97270.28
2019-05-01T04:42:31.294Z,97270.91
2019-05-01T04:45:00.829Z,97267.23
2019-05-01T04:47:30.961Z,97269.83
2019-05-01T04:50:01.909Z,97280.16
2019-05-01T04:52:31.590Z,97271.59
2019-05-01T04:55:01.673Z,97273.94
2019-05-01T04:57:31.599Z,97274.06
2019-05-01T05:00:01.574Z,97276.66
2019-05-01T05:02:41.057Z,97266.89
2019-05-01T05:05:11.196Z,97274.89
2019-05-01T05:07:41.070Z,97270.31
2019-05-01T05:10:10.789Z,97257.48
2019-05-01T05:12:52.561Z,97264.37
2019-05-01T05:15:39.892Z,97262.50
2019-05-01T05:18:09.519Z,97264.48
2019-05-01T05:20:39.225Z,97269.11
2019-05-01T05:23:08.903Z,97272.97
2019-05-01T05:25:38.683Z,97279.73
2019-05-01T05:28:08.561Z,97272.11
2019-05-01T05:30:39.925Z,97273.02
2019-05-01T05:33:18.522Z,97277.20
2019-05-01T05:35:44.174Z,97268.05
2019-05-01T05:38:25.811Z,97258.14
2019-05-01T05:40:55.622Z,97259.45
2019-05-01T05:43:25.595Z,97257.76
2019-05-01T05:45:55.587Z,97261.23
2019-05-01T05:48:25.520Z,97260.36
2019-05-01T05:51:19.702Z,97266.68
2019-05-01T05:53:53.634Z,97264.51
2019-05-01T05:56:28.829Z,97263.34
2019-05-01T05:59:05.679Z,97262.85
2019-05-01T06:01:48.600Z,97260.89
2019-05-01T06:04:38.444Z,97270.63
2019-05-01T06:07:28.349Z,97267.77
2019-05-01T06:10:18.421Z,97273.32
2019-05-01T06:13:13.376Z,97267.20
2019-05-01T06:16:05.308Z,97276.94
2019-05-01T06:18:57.007Z,97269.48
2019-05-01T06:21:35.972Z,97272.51
2019-05-01T06:24:18.175Z,97279.59
2019-05-01T06:26:47.753Z,97274.69
2019-05-01T06:29:17.189Z,97275.13
2019-05-01T06:31:47.175Z,97264.97
2019-05-01T06:34:17.248Z,97268.62
2019-05-01T06:36:49.754Z,97266.66
2019-05-01T06:39:18.232Z,97267.84
2019-05-01T06:41:48.271Z,97265.91
2019-05-01T06:44:46.864Z,97266.02
2019-05-01T06:47:38.297Z,97270.25
2019-05-01T06:50:44.775Z,97276.19
2019-05-01T06:53:14.571Z,97269.23
2019-05-01T06:55:44.982Z,97265.59
2019-05-01T06:58:19.907Z,97267.48
2019-05-01T07:00:46.251Z,97267.86
2019-05-01T07:03:16.266Z,97271.39
2019-05-01T07:05:48.981Z,97268.91
2019-05-01T07:08:24.347Z,97262.26
2019-05-01T07:10:49.404Z,97257.34
2019-05-01T07:13:19.560Z,97262.20
2019-05-01T07:15:49.462Z,97255.14
2019-05-01T07:18:23.629Z,97257.23
2019-05-01T07:20:53.267Z,97259.33
2019-05-01T07:23:23.128Z,97258.00
2019-05-01T07:25:52.990Z,97264.23
2019-05-01T07:28:23.065Z,97268.31
2019-05-01T07:30:56.247Z,97272.73
2019-05-01T07:33:26.287Z,97276.03
2019-05-01T07:35:56.008Z,97270.80
2019-05-01T07:38:25.483Z,97271.98
2019-05-01T07:40:58.869Z,97270.58
2019-05-01T07:43:34.105Z,97262.27
2019-05-01T07:46:28.844Z,97269.88
2019-05-01T07:48:58.718Z,97266.52
2019-05-01T07:51:28.859Z,97264.99
2019-05-01T07:54:03.631Z,97260.22
2019-05-01T07:56:31.555Z,97253.84
2019-05-01T07:59:01.189Z,97254.08
2019-05-01T08:01:49.817Z,97255.20
2019-05-01T08:04:35.208Z,97253.57
2019-05-01T08:06:52.093Z,97248.28
2019-05-01T08:09:22.299Z,97250.58
2019-05-01T08:11:51.798Z,97245.64
2019-05-01T08:14:21.278Z,97241.94
2019-05-01T08:16:51.058Z,97240.12
2019-05-01T08:19:25.721Z,97237.22
2019-05-01T08:22:01.775Z,97244.13
2019-05-01T08:24:31.902Z,97240.85
2019-05-01T08:27:01.562Z,97240.53
2019-05-01T08:30:02.096Z,97238.09
2019-05-01T08:32:56.597Z,97238.59
2019-05-01T08:35:27.463Z,97233.91
2019-05-01T08:37:58.542Z,97233.87
2019-05-01T08:40:28.700Z,97222.66
2019-05-01T08:42:58.164Z,97219.98
2019-05-01T08:45:55.747Z,97214.22
2019-05-01T08:48:47.177Z,97204.91
2019-05-01T08:51:16.873Z,97212.02
2019-05-01T08:53:46.447Z,97207.74
2019-05-01T08:56:17.075Z,97207.45
2019-05-01T08:58:49.413Z,97207.62
2019-05-01T09:01:18.783Z,97205.63
2019-05-01T09:03:53.741Z,97212.36
2019-05-01T09:06:19.921Z,97209.08
2019-05-01T09:08:49.500Z,97205.16
2019-05-01T09:11:19.258Z,97208.12
2019-05-01T09:13:48.735Z,97215.27
2019-05-01T09:16:19.252Z,97213.08
2019-05-01T09:18:48.978Z,97208.91
2019-05-01T09:21:18.677Z,97204.61
2019-05-01T09:23:51.298Z,97197.16
2019-05-01T09:26:38.588Z,97206.58
2019-05-01T09:29:11.154Z,97201.22
2019-05-01T09:31:41.878Z,97202.38
2019-05-01T09:34:13.962Z,97205.34
2019-05-01T09:36:42.636Z,97197.59
2019-05-01T09:39:13.039Z,97183.47
2019-05-01T09:41:43.184Z,97175.73
2019-05-01T09:44:13.903Z,97176.27
2019-05-01T09:46:43.860Z,97172.42
2019-05-01T09:49:14.305Z,97168.05
2019-05-01T09:51:52.230Z,97171.70
2019-05-01T09:54:33.471Z,97176.34
2019-05-01T09:57:03.186Z,97174.50
2019-05-01T09:59:32.774Z,97176.98
2019-05-01T10:02:03.008Z,97173.02
2019-05-01T10:04:33.678Z,97173.02
2019-05-01T10:07:03.122Z,97168.56
2019-05-01T10:09:32.739Z,97166.58
2019-05-01T10:12:02.494Z,97168.34
2019-05-01T10:14:36.268Z,97165.07
2019-05-01T10:17:06.562Z,97153.22
2019-05-01T10:19:36.361Z,97154.60
2019-05-01T10:22:05.843Z,97154.02
2019-05-01T10:24:37.606Z,97161.50
2019-05-01T10:27:08.668Z,97162.02
2019-05-01T10:30:01.689Z,97165.86
2019-05-01T10:32:39.599Z,97152.00
2019-05-01T10:35:26.259Z,97144.20
2019-05-01T10:37:55.769Z,97142.28
2019-05-01T10:40:26.984Z,97135.41
2019-05-01T10:42:56.693Z,97128.16
2019-05-01T10:45:26.089Z,97131.78
2019-05-01T10:47:55.601Z,97122.86
2019-05-01T10:50:25.404Z,97135.85
2019-05-01T10:52:55.100Z,97133.58
2019-05-01T10:55:24.511Z,97129.27
2019-05-01T10:57:54.340Z,97139.01
2019-05-01T11:00:23.916Z,97138.10
2019-05-01T11:02:53.289Z,97136.97
2019-05-01T11:05:22.860Z,97129.86
2019-05-01T11:07:52.649Z,97132.88
2019-05-01T11:10:22.160Z,97127.17
2019-05-01T11:12:51.763Z,97119.72
2019-05-01T11:15:21.899Z,97122.95
2019-05-01T11:17:51.393Z,97121.16
2019-05-01T11:20:20.803Z,97122.61
2019-05-01T11:22:50.530Z,97118.09
2019-05-01T11:25:20.573Z,97118.55
2019-05-01T11:27:50.054Z,97124.77
2019-05-01T11:30:19.615Z,97123.41
2019-05-01T11:33:13.340Z,97115.77
2019-05-01T11:36:11.086Z,97110.08
2019-05-01T11:39:05.049Z,97108.34
2019-05-01T11:41:41.299Z,97098.34
2019-05-01T11:44:10.819Z,97105.06
2019-05-01T11:46:40.516Z,97105.66
2019-05-01T11:49:10.228Z,97099.73
2019-05-01T11:51:39.734Z,97097.70
2019-05-01T11:54:09.366Z,97100.61
2019-05-01T11:56:39.061Z,97094.07
2019-05-01T11:59:08.524Z,97088.28
2019-05-01T12:01:38.139Z,97089.65
2019-05-01T12:04:07.639Z,97082.26
2019-05-01T12:06:37.036Z,97075.56
2019-05-01T12:09:07.919Z,97071.98
2019-05-01T12:11:39.233Z,97078.49
2019-05-01T12:14:08.836Z,97072.80
2019-05-01T12:16:55.833Z,97071.72
2019-05-01T12:19:26.215Z,97069.66
2019-05-01T12:21:56.001Z,97069.44
2019-05-01T12:24:25.504Z,97067.94
2019-05-01T12:26:55.087Z,97061.25
2019-05-01T12:29:24.756Z,97061.54
2019-05-01T12:31:54.448Z,97054.40
2019-05-01T12:34:24.031Z,97043.16
2019-05-01T12:37:12.564Z,97046.27
2019-05-01T12:39:42.057Z,97037.94
2019-05-01T12:42:11.469Z,97029.18
2019-05-01T12:44:40.957Z,97039.30
2019-05-01T12:47:16.178Z,97040.77
2019-05-01T12:49:47.631Z,97032.00
2019-05-01T12:52:25.681Z,97035.34
2019-05-01T12:55:00.898Z,97034.22
2019-05-01T12:57:30.411Z,97027.08
2019-05-01T13:00:08.510Z,97024.18
2019-05-01T13:02:31.186Z,97020.61
2019-05-01T13:05:01.062Z,97025.66
2019-05-01T13:07:30.722Z,97020.06
2019-05-01T13:10:00.590Z,97024.84
2019-05-01T13:12:30.374Z,97021.33
2019-05-01T13:15:00.135Z,97011.28
2019-05-01T13:17:29.843Z,97021.72
2019-05-01T13:19:59.236Z,97010.55
2019-05-01T13:22:28.775Z,97003.88
2019-05-01T13:24:58.371Z,96998.42
2019-05-01T13:27:34.587Z,97010.13
2019-05-01T13:30:14.833Z,97008.80
2019-05-01T13:32:46.286Z,97008.91
2019-05-01T13:35:16.247Z,97009.73
2019-05-01T13:37:45.994Z,97001.42
2019-05-01T13:40:16.870Z,97006.91
2019-05-01T13:42:46.550Z,97011.25
2019-05-01T13:45:16.450Z,96999.20
2019-05-01T13:47:46.327Z,96994.36
2019-05-01T13:50:16.115Z,96992.84
2019-05-01T13:52:45.794Z,96990.59
2019-05-01T13:55:16.120Z,96996.72
2019-05-01T13:57:45.790Z,96999.92
2019-05-01T14:00:16.063Z,96990.78
2019-05-01T14:02:45.914Z,96991.48
2019-05-01T14:05:15.719Z,96991.16
2019-05-01T14:07:45.119Z,96991.16
2019-05-01T14:10:15.032Z,96988.95
2019-05-01T14:12:44.749Z,96991.39
2019-05-01T14:15:14.261Z,96986.98
2019-05-01T14:17:43.666Z,96980.64
2019-05-01T14:20:32.496Z,96981.71
2019-05-01T14:23:17.439Z,96989.68
2019-05-01T14:26:06.585Z,96984.41
2019-05-01T14:28:36.391Z,96986.78
2019-05-01T14:31:07.087Z,96990.11
2019-05-01T14:33:36.788Z,96989.77
2019-05-01T14:36:06.698Z,96979.81
2019-05-01T14:38:36.162Z,96980.98
2019-05-01T14:41:06.120Z,96983.45
2019-05-01T14:43:35.603Z,96978.04
2019-05-01T14:46:05.581Z,96985.91
2019-05-01T14:48:35.340Z,96981.86
2019-05-01T14:51:04.846Z,96983.31
2019-05-01T14:53:34.477Z,96980.25
2019-05-01T14:56:04.166Z,96983.72
2019-05-01T14:58:33.805Z,96985.03
2019-05-01T15:01:03.192Z,96985.62
2019-05-01T15:03:32.784Z,96986.55
2019-05-01T15:06:02.435Z,96976.44
2019-05-01T15:08:32.347Z,96975.87
2019-05-01T15:11:01.911Z,96972.70
2019-05-01T15:13:53.436Z,96969.97
2019-05-01T15:16:48.114Z,96970.00
2019-05-01T15:19:28.902Z,96970.54
2019-05-01T15:21:58.293Z,96971.59
2019-05-01T15:24:28.141Z,96971.97
2019-05-01T15:26:57.584Z,96975.11
2019-05-01T15:29:27.013Z,96978.58
2019-05-01T15:31:56.737Z,96980.50
2019-05-01T15:34:26.439Z,96976.66
2019-05-01T15:36:56.006Z,96982.41
2019-05-01T15:39:31.239Z,96979.77
2019-05-01T15:42:10.884Z,96992.83
2019-05-01T15:44:40.431Z,96986.34
2019-05-01T15:47:09.824Z,97000.59
2019-05-01T15:49:39.213Z,96994.55
2019-05-01T15:52:08.750Z,96992.67
2019-05-01T15:54:38.431Z,96995.05
2019-05-01T15:57:08.225Z,96999.69
2019-05-01T15:59:37.920Z,96993.16
2019-05-01T16:02:07.795Z,96993.33
2019-05-01T16:04:37.281Z,97004.89
2019-05-01T16:07:06.882Z,96999.28
2019-05-01T16:09:36.623Z,97001.57
2019-05-01T16:12:28.162Z,97010.93
2019-05-01T16:14:57.863Z,97021.24
2019-05-01T16:17:27.251Z,97021.45
2019-05-01T16:19:58.948Z,97016.48
2019-05-01T16:22:28.622Z,97020.97
2019-05-01T16:24:58.105Z,97022.02
2019-05-01T16:27:27.694Z,97020.25
2019-05-01T16:29:57.205Z,97021.64
2019-05-01T16:32:26.728Z,97019.64
2019-05-01T16:34:56.202Z,97021.97
2019-05-01T16:37:25.787Z,97022.08
2019-05-01T16:40:04.804Z,97019.36
2019-05-01T16:42:41.671Z,97025.41
2019-05-01T16:45:13.869Z,97023.95
2019-05-01T16:47:43.724Z,97024.98
2019-05-01T16:50:13.939Z,97031.48
2019-05-01T16:52:44.589Z,97030.59
2019-05-01T16:55:15.121Z,97028.03
2019-05-01T16:57:44.900Z,97038.38
2019-05-01T17:00:15.113Z,97036.49
2019-05-01T17:03:01.913Z,97038.09
2019-05-01T17:06:02.505Z,97037.21
2019-05-01T17:08:53.136Z,97042.14
2019-05-01T17:11:33.498Z,97042.79
2019-05-01T17:14:03.570Z,97045.73
2019-05-01T17:16:33.506Z,97046.48
2019-05-01T17:19:03.978Z,97047.41
2019-05-01T17:21:33.773Z,97050.21
2019-05-01T17:24:03.377Z,97051.99
2019-05-01T17:26:33.100Z,97055.42
2019-05-01T17:29:02.797Z,97054.96
2019-05-01T17:31:32.293Z,97063.19
2019-05-01T17:34:02.295Z,97064.75
2019-05-01T17:36:32.030Z,97060.66
2019-05-01T17:39:01.646Z,97068.64
2019-05-01T17:41:31.136Z,97066.83
2019-05-01T17:44:00.880Z,97070.47
2019-05-01T17:46:30.652Z,97079.99
2019-05-01T17:49:04.254Z,97081.45
2019-05-01T17:51:32.058Z,97081.44
2019-05-01T17:54:01.859Z,97085.67
2019-05-01T17:56:31.434Z,97084.59
2019-05-01T17:59:00.881Z,97091.70
2019-05-01T18:01:47.960Z,97094.73
2019-05-01T18:04:36.519Z,97101.26
2019-05-01T18:07:06.479Z,97105.37
2019-05-01T18:09:36.719Z,97114.19
2019-05-01T18:12:06.467Z,97113.33
2019-05-01T18:14:36.037Z,97119.11
2019-05-01T18:17:06.302Z,97118.06
2019-05-01T18:19:36.115Z,97112.12
2019-05-01T18:22:23.538Z,97120.72
2019-05-01T18:25:09.982Z,97125.77
2019-05-01T18:28:13.366Z,97125.16
2019-05-01T18:30:43.738Z,97130.66
2019-05-01T18:33:13.554Z,97131.86
2019-05-01T18:35:45.025Z,97140.44
2019-05-01T18:38:38.714Z,97145.38
2019-05-01T18:41:20.728Z,97145.36
2019-05-01T18:43:50.401Z,97148.44
2019-05-01T18:46:19.909Z,97150.53
2019-05-01T18:48:49.649Z,97154.25
2019-05-01T18:51:19.651Z,97161.32
2019-05-01T18:53:49.125Z,97165.37
2019-05-01T18:56:18.669Z,97173.66
2019-05-01T18:58:48.156Z,97170.77
2019-05-01T19:01:17.917Z,97167.80
2019-05-01T19:03:47.754Z,97177.67
2019-05-01T19:06:17.334Z,97184.02
2019-05-01T19:08:47.055Z,97192.81
2019-05-01T19:11:16.764Z,97189.14
2019-05-01T19:13:46.594Z,97194.56
2019-05-01T19:16:16.131Z,97190.42
2019-05-01T19:18:45.912Z,97191.52
2019-05-01T19:21:17.377Z,97201.94
2019-05-01T19:23:47.176Z,97199.70
2019-05-01T19:26:17.231Z,97203.02
2019-05-01T19:28:47.099Z,97196.84
2019-05-01T19:31:16.701Z,97201.16
2019-05-01T19:33:46.858Z,97209.64
2019-05-01T19:36:16.811Z,97222.27
2019-05-01T19:38:46.687Z,97219.14
2019-05-01T19:41:16.571Z,97222.22
2019-05-01T19:43:46.090Z,97227.04
2019-05-01T19:46:15.781Z,97231.19
2019-05-01T19:48:50.858Z,97238.38
2019-05-01T19:51:19.263Z,97245.37
2019-05-01T19:53:51.651Z,97243.01
2019-05-01T19:56:21.472Z,97242.16
2019-05-01T19:58:50.873Z,97246.64
2019-05-01T20:01:20.370Z,97252.28
2019-05-01T20:03:49.788Z,97249.41
2019-05-01T20:06:19.646Z,97250.16
2019-05-01T20:08:49.036Z,97253.90
2019-05-01T20:11:18.808Z,97249.50
2019-05-01T20:13:48.513Z,97255.10
2019-05-01T20:16:18.881Z,97247.69
2019-05-01T20:18:48.281Z,97243.37
2019-05-01T20:21:18.150Z,97244.27
2019-05-01T20:23:47.788Z,97252.39
2019-05-01T20:26:17.169Z,97254.39
2019-05-01T20:28:47.158Z,97256.38
2019-05-01T20:31:17.940Z,97255.41
2019-05-01T20:33:48.343Z,97255.80
2019-05-01T20:36:17.935Z,97261.35
2019-05-01T20:38:47.333Z,97263.02
2019-05-01T20:41:18.052Z,97264.85
2019-05-01T20:43:47.892Z,97263.90
2019-05-01T20:46:21.209Z,97267.45
2019-05-01T20:48:48.833Z,97264.14
2019-05-01T20:51:20.129Z,97271.41
2019-05-01T20:53:49.580Z,97268.67
2019-05-01T20:56:36.673Z,97274.41
2019-05-01T20:59:06.479Z,97271.19
2019-05-01T21:01:35.856Z,97278.29
2019-05-01T21:04:23.680Z,97275.43
2019-05-01T21:07:15.542Z,97272.64
2019-05-01T21:09:47.828Z,97277.52
2019-05-01T21:12:15.350Z,97270.92
2019-05-01T21:14:45.296Z,97279.83
2019-05-01T21:17:15.980Z,97275.69
2019-05-01T21:19:45.789Z,97273.64
2019-05-01T21:22:15.354Z,97278.37
2019-05-01T21:24:44.760Z,97283.28
2019-05-01T21:27:14.520Z,97282.05
2019-05-01T21:29:44.506Z,97279.73
2019-05-01T21:32:18.279Z,97281.05
2019-05-01T21:34:45.860Z,97284.09
2019-05-01T21:37:15.379Z,97284.12
2019-05-01T21:39:44.971Z,97281.85
2019-05-01T21:42:16.054Z,97288.88
2019-05-01T21:44:45.949Z,97287.56
2019-05-01T21:47:15.340Z,97287.25
2019-05-01T21:49:44.814Z,97289.06
2019-05-01T21:52:17.910Z,97295.66
2019-05-01T21:54:45.692Z,97291.77
2019-05-01T21:57:17.461Z,97295.27
2019-05-01T21:59:48.135Z,97290.53
2019-05-01T22:02:18.237Z,97289.77
2019-05-01T22:04:47.712Z,97285.75
2019-05-01T22:07:17.105Z,97291.70
2019-05-01T22:09:50.574Z,97297.90
2019-05-01T22:12:18.156Z,97291.61
2019-05-01T22:14:57.477Z,97285.84
2019-05-01T22:17:51.676Z,97284.92
2019-05-01T22:20:28.123Z,97291.42
2019-05-01T22:23:01.822Z,97290.57
2019-05-01T22:25:35.141Z,97288.48
2019-05-01T22:28:13.938Z,97279.52
2019-05-01T22:30:51.006Z,97281.88
2019-05-01T22:33:20.400Z,97274.16
2019-05-01T22:35:51.979Z,97275.93
2019-05-01T22:38:21.622Z,97280.78
2019-05-01T22:41:19.263Z,97274.48
2019-05-01T22:43:48.719Z,97276.64
2019-05-01T22:46:23.545Z,97271.87
2019-05-01T22:48:53.059Z,97270.09
2019-05-01T22:51:24.048Z,97270.62
2019-05-01T22:53:56.999Z,97263.28
2019-05-01T22:56:27.060Z,97259.02
2019-05-01T22:58:56.526Z,97256.66
2019-05-01T23:01:27.389Z,97262.83
2019-05-01T23:04:05.843Z,97260.04
2019-05-01T23:06:37.137Z,97258.78
2019-05-01T23:09:09.802Z,97259.05
2019-05-01T23:11:41.759Z,97260.74
2019-05-01T23:14:11.795Z,97262.25
2019-05-01T23:17:03.428Z,97265.28
2019-05-01T23:19:32.454Z,97261.05
2019-05-01T23:22:01.899Z,97256.63
2019-05-01T23:24:31.550Z,97252.70
2019-05-01T23:27:01.330Z,97252.05
2019-05-01T23:29:30.919Z,97258.16
2019-05-01T23:32:00.530Z,97252.79
2019-05-01T23:34:30.115Z,97253.19
2019-05-01T23:36:59.511Z,97255.36
2019-05-01T23:39:29.403Z,97260.15
2019-05-01T23:41:59.268Z,97258.28
2019-05-01T23:44:28.761Z,97255.06
2019-05-01T23:46:58.286Z,97262.88
2019-05-01T23:49:27.865Z,97258.83
2019-05-01T23:51:58.671Z,97252.88
2019-05-01T23:54:28.726Z,97251.09
2019-05-01T23:56:58.311Z,97258.71
2019-05-01T23:59:28.059Z,97253.38
